sensor_id;sensor_type;location;lat;lon;timestamp;pressure;altitude;pressure_sealevel;temperature;humidity
70902;BME280;58548;47.210;8.618;2023-01-27T00:01:06;94027.34;;;8.45;34.87
70902;BME280;58548;47.210;8.618;2023-01-27T00:03:35;93894.25;;;7.50;34.82
70902;BME280;58548;47.210;8.618;2023-01-27T00:06:05;94030.22;;;8.35;34.93
70902;BME280;58548;47.210;8.618;2023-01-27T00:08:31;93893.72;;;7.54;34.65
70902;BME280;58548;47.210;8.618;2023-01-27T00:10:58;93877.03;;;7.49;34.37
70902;BME280;58548;47.210;8.618;2023-01-27T00:13:43;93790.47;;;6.95;34.24
70902;BME280;58548;47.210;8.618;2023-01-27T00:16:09;93933.47;;;7.78;35.11
70902;BME280;58548;47.210;8.618;2023-01-27T00:18:37;94021.03;;;8.24;34.77
70902;BME280;58548;47.210;8.618;2023-01-27T00:21:05;93876.44;;;7.23;34.43
70902;BME280;58548;47.210;8.618;2023-01-27T00:23:49;94016.59;;;8.10;35.13
70902;BME280;58548;47.210;8.618;2023-01-27T00:26:34;94023.34;;;8.19;34.79
70902;BME280;58548;47.210;8.618;2023-01-27T00:29:02;93875.63;;;7.23;34.69
70902;BME280;58548;47.210;8.618;2023-01-27T00:31:28;94020.75;;;8.19;34.97
70902;BME280;58548;47.210;8.618;2023-01-27T00:34:13;94019.03;;;8.11;34.87
70902;BME280;58548;47.210;8.618;2023-01-27T00:36:40;93990.44;;;7.88;35.06
70902;BME280;58548;47.210;8.618;2023-01-27T00:39:10;93870.41;;;7.23;35.14
70902;BME280;58548;47.210;8.618;2023-01-27T00:41:40;94013.00;;;8.11;34.98
70902;BME280;58548;47.210;8.618;2023-01-27T00:44:06;93884.03;;;7.25;34.40
70902;BME280;58548;47.210;8.618;2023-01-27T00:46:40;94006.53;;;8.07;35.11
70902;BME280;58548;47.210;8.618;2023-01-27T00:49:09;93874.38;;;7.19;34.92
70902;BME280;58548;47.210;8.618;2023-01-27T00:51:38;93991.66;;;8.00;35.04
70902;BME280;58548;47.210;8.618;2023-01-27T00:54:04;93960.22;;;7.87;34.87
70902;BME280;58548;47.210;8.618;2023-01-27T00:56:30;93856.53;;;7.16;34.46
70902;BME280;58548;47.210;8.618;2023-01-27T00:58:56;93853.69;;;7.26;34.54
70902;BME280;58548;47.210;8.618;2023-01-27T01:01:24;93877.38;;;7.31;34.29
70902;BME280;58548;47.210;8.618;2023-01-27T01:03:50;94001.75;;;7.95;34.99
70902;BME280;58548;47.210;8.618;2023-01-27T01:06:18;94007.25;;;8.00;34.81
70902;BME280;58548;47.210;8.618;2023-01-27T01:08:44;94018.44;;;8.01;34.61
70902;BME280;58548;47.210;8.618;2023-01-27T01:11:15;93960.34;;;7.70;34.73
70902;BME280;58548;47.210;8.618;2023-01-27T01:13:43;93883.59;;;7.21;34.28
70902;BME280;58548;47.210;8.618;2023-01-27T01:18:40;94001.13;;;7.93;34.96
70902;BME280;58548;47.210;8.618;2023-01-27T01:21:12;94012.81;;;7.97;34.88
70902;BME280;58548;47.210;8.618;2023-01-27T01:23:42;93875.97;;;7.20;34.53
70902;BME280;58548;47.210;8.618;2023-01-27T01:26:14;94010.66;;;8.01;34.25
70902;BME280;58548;47.210;8.618;2023-01-27T01:28:46;93882.16;;;7.19;34.70
70902;BME280;58548;47.210;8.618;2023-01-27T01:31:15;93883.13;;;7.18;34.38
70902;BME280;58548;47.210;8.618;2023-01-27T01:33:47;93859.81;;;7.09;34.63
70902;BME280;58548;47.210;8.618;2023-01-27T01:36:16;93849.44;;;7.09;34.68
70902;BME280;58548;47.210;8.618;2023-01-27T01:38:46;93945.94;;;7.68;34.54
70902;BME280;58548;47.210;8.618;2023-01-27T01:41:17;94005.09;;;8.04;33.97
70902;BME280;58548;47.210;8.618;2023-01-27T01:43:46;93854.28;;;7.13;34.61
70902;BME280;58548;47.210;8.618;2023-01-27T01:46:16;93851.84;;;7.11;34.06
70902;BME280;58548;47.210;8.618;2023-01-27T01:51:25;93994.94;;;7.94;34.73
70902;BME280;58548;47.210;8.618;2023-01-27T01:54:03;93850.69;;;7.14;34.29
70902;BME280;58548;47.210;8.618;2023-01-27T02:01:57;93983.03;;;8.00;34.37
70902;BME280;58548;47.210;8.618;2023-01-27T02:04:33;93830.97;;;7.04;33.70
70902;BME280;58548;47.210;8.618;2023-01-27T02:09:43;93973.69;;;7.91;34.78
70902;BME280;58548;47.210;8.618;2023-01-27T02:12:09;93974.84;;;7.88;33.79
70902;BME280;58548;47.210;8.618;2023-01-27T02:14:40;93961.56;;;7.83;34.05
70902;BME280;58548;47.210;8.618;2023-01-27T02:17:09;93968.53;;;7.82;34.24
70902;BME280;58548;47.210;8.618;2023-01-27T02:22:30;93966.47;;;7.78;34.39
70902;BME280;58548;47.210;8.618;2023-01-27T02:25:07;93953.88;;;7.66;34.22
70902;BME280;58548;47.210;8.618;2023-01-27T02:27:39;93966.69;;;7.91;34.41
70902;BME280;58548;47.210;8.618;2023-01-27T02:30:05;93840.38;;;7.05;34.42
70902;BME280;58548;47.210;8.618;2023-01-27T02:32:36;93948.81;;;7.73;34.27
70902;BME280;58548;47.210;8.618;2023-01-27T02:35:10;93788.63;;;6.81;34.11
70902;BME280;58548;47.210;8.618;2023-01-27T02:37:44;93834.78;;;7.17;33.61
70902;BME280;58548;47.210;8.618;2023-01-27T02:40:15;93827.69;;;7.11;33.83
70902;BME280;58548;47.210;8.618;2023-01-27T02:42:42;93918.22;;;7.60;34.19
70902;BME280;58548;47.210;8.618;2023-01-27T02:45:10;93827.31;;;6.90;33.91
70902;BME280;58548;47.210;8.618;2023-01-27T02:47:40;93963.09;;;7.92;33.92
70902;BME280;58548;47.210;8.618;2023-01-27T02:50:07;93823.88;;;6.98;33.61
70902;BME280;58548;47.210;8.618;2023-01-27T02:52:33;93928.38;;;7.70;33.42
70902;BME280;58548;47.210;8.618;2023-01-27T02:54:59;93844.22;;;7.09;33.75
70902;BME280;58548;47.210;8.618;2023-01-27T02:57:24;93960.31;;;7.79;34.03
70902;BME280;58548;47.210;8.618;2023-01-27T02:59:51;93837.47;;;7.00;33.69
70902;BME280;58548;47.210;8.618;2023-01-27T03:02:17;93950.25;;;7.76;33.62
70902;BME280;58548;47.210;8.618;2023-01-27T03:04:48;93825.19;;;6.94;33.95
70902;BME280;58548;47.210;8.618;2023-01-27T03:07:16;93923.03;;;7.63;33.79
70902;BME280;58548;47.210;8.618;2023-01-27T03:09:42;93813.03;;;6.94;33.78
70902;BME280;58548;47.210;8.618;2023-01-27T03:12:08;93908.47;;;7.62;33.91
70902;BME280;58548;47.210;8.618;2023-01-27T03:14:50;93820.22;;;7.07;33.91
70902;BME280;58548;47.210;8.618;2023-01-27T03:17:37;93924.53;;;7.81;34.03
70902;BME280;58548;47.210;8.618;2023-01-27T03:20:22;93953.78;;;7.98;33.76
70902;BME280;58548;47.210;8.618;2023-01-27T03:22:53;93950.19;;;7.99;33.58
70902;BME280;58548;47.210;8.618;2023-01-27T03:25:21;93930.97;;;7.85;33.49
70902;BME280;58548;47.210;8.618;2023-01-27T03:27:50;93825.06;;;7.11;33.62
70902;BME280;58548;47.210;8.618;2023-01-27T03:30:16;93934.94;;;7.81;33.96
70902;BME280;58548;47.210;8.618;2023-01-27T03:32:42;93814.47;;;6.97;34.15
70902;BME280;58548;47.210;8.618;2023-01-27T03:35:13;93942.34;;;7.84;34.34
70902;BME280;58548;47.210;8.618;2023-01-27T03:37:43;93814.09;;;7.00;34.47
70902;BME280;58548;47.210;8.618;2023-01-27T03:40:28;93937.09;;;7.92;34.12
70902;BME280;58548;47.210;8.618;2023-01-27T03:43:12;93684.72;;;6.27;34.07
70902;BME280;58548;47.210;8.618;2023-01-27T03:45:57;93952.34;;;7.95;34.63
70902;BME280;58548;47.210;8.618;2023-01-27T03:48:43;93936.47;;;7.90;34.43
70902;BME280;58548;47.210;8.618;2023-01-27T03:51:14;93897.78;;;7.57;34.36
70902;BME280;58548;47.210;8.618;2023-01-27T03:53:40;93806.50;;;6.99;34.47
70902;BME280;58548;47.210;8.618;2023-01-27T03:56:09;93905.72;;;7.79;34.25
70902;BME280;58548;47.210;8.618;2023-01-27T03:58:36;93928.25;;;8.02;33.82
70902;BME280;58548;47.210;8.618;2023-01-27T04:03:38;93926.66;;;7.77;34.61
70902;BME280;58548;47.210;8.618;2023-01-27T04:06:28;93802.94;;;7.00;34.44
70902;BME280;58548;47.210;8.618;2023-01-27T04:09:18;93933.88;;;7.90;34.46
70902;BME280;58548;47.210;8.618;2023-01-27T04:11:47;93938.72;;;7.93;34.97
70902;BME280;58548;47.210;8.618;2023-01-27T04:14:39;93923.13;;;7.93;34.13
70902;BME280;58548;47.210;8.618;2023-01-27T04:17:13;93862.09;;;7.51;34.52
70902;BME280;58548;47.210;8.618;2023-01-27T04:19:42;93948.97;;;8.10;34.12
70902;BME280;58548;47.210;8.618;2023-01-27T04:22:12;93930.72;;;7.95;34.02
70902;BME280;58548;47.210;8.618;2023-01-27T04:24:41;93924.09;;;7.92;34.30
70902;BME280;58548;47.210;8.618;2023-01-27T04:27:10;93953.13;;;8.19;33.81
70902;BME280;58548;47.210;8.618;2023-01-27T04:29:40;93822.00;;;7.30;33.76
70902;BME280;58548;47.210;8.618;2023-01-27T04:32:08;93810.19;;;7.28;33.66
70902;BME280;58548;47.210;8.618;2023-01-27T04:34:34;93838.91;;;7.26;33.67
70902;BME280;58548;47.210;8.618;2023-01-27T04:37:01;93815.84;;;7.08;33.90
70902;BME280;58548;47.210;8.618;2023-01-27T04:39:28;93845.38;;;7.30;34.11
70902;BME280;58548;47.210;8.618;2023-01-27T04:41:54;93939.06;;;7.90;34.13
70902;BME280;58548;47.210;8.618;2023-01-27T04:44:21;93833.25;;;7.22;34.17
70902;BME280;58548;47.210;8.618;2023-01-27T04:46:49;93943.06;;;8.16;33.91
70902;BME280;58548;47.210;8.618;2023-01-27T04:49:15;93948.31;;;8.08;33.94
70902;BME280;58548;47.210;8.618;2023-01-27T04:51:41;93950.19;;;7.99;34.73
70902;BME280;58548;47.210;8.618;2023-01-27T04:54:07;93725.81;;;6.62;34.87
70902;BME280;58548;47.210;8.618;2023-01-27T04:56:39;93914.16;;;7.81;34.58
70902;BME280;58548;47.210;8.618;2023-01-27T04:59:09;93919.00;;;7.99;34.30
70902;BME280;58548;47.210;8.618;2023-01-27T05:01:38;93929.78;;;8.11;34.12
70902;BME280;58548;47.210;8.618;2023-01-27T05:04:06;93799.53;;;7.37;34.51
70902;BME280;58548;47.210;8.618;2023-01-27T05:06:32;93791.88;;;7.21;34.46
70902;BME280;58548;47.210;8.618;2023-01-27T05:09:00;93808.66;;;7.33;34.20
70902;BME280;58548;47.210;8.618;2023-01-27T05:11:29;93931.03;;;8.15;34.34
70902;BME280;58548;47.210;8.618;2023-01-27T05:13:55;93800.88;;;7.33;34.61
70902;BME280;58548;47.210;8.618;2023-01-27T05:16:23;93818.13;;;7.26;34.40
70902;BME280;58548;47.210;8.618;2023-01-27T05:18:51;93940.97;;;7.96;34.72
70902;BME280;58548;47.210;8.618;2023-01-27T05:21:24;93811.13;;;7.12;34.51
70902;BME280;58548;47.210;8.618;2023-01-27T05:23:52;93933.88;;;7.90;34.52
70902;BME280;58548;47.210;8.618;2023-01-27T05:26:23;93911.59;;;7.73;34.67
70902;BME280;58548;47.210;8.618;2023-01-27T05:28:50;93919.69;;;7.78;34.63
70902;BME280;58548;47.210;8.618;2023-01-27T05:31:18;93953.53;;;7.93;34.56
70902;BME280;58548;47.210;8.618;2023-01-27T05:33:47;93916.44;;;7.76;34.45
70902;BME280;58548;47.210;8.618;2023-01-27T05:36:18;93805.09;;;7.11;34.50
70902;BME280;58548;47.210;8.618;2023-01-27T05:38:45;93830.03;;;7.20;35.09
70902;BME280;58548;47.210;8.618;2023-01-27T05:41:13;93806.25;;;7.08;35.08
70902;BME280;58548;47.210;8.618;2023-01-27T05:43:46;93823.22;;;7.19;35.04
70902;BME280;58548;47.210;8.618;2023-01-27T05:46:20;93963.50;;;8.04;34.92
70902;BME280;58548;47.210;8.618;2023-01-27T05:48:49;93937.03;;;8.00;34.58
70902;BME280;58548;47.210;8.618;2023-01-27T05:51:17;93809.00;;;7.30;34.50
70902;BME280;58548;47.210;8.618;2023-01-27T05:53:47;93906.47;;;8.03;34.36
70902;BME280;58548;47.210;8.618;2023-01-27T05:56:18;93917.22;;;7.99;34.40
70902;BME280;58548;47.210;8.618;2023-01-27T05:58:48;93869.38;;;7.70;34.28
70902;BME280;58548;47.210;8.618;2023-01-27T06:01:17;93901.19;;;7.73;34.03
70902;BME280;58548;47.210;8.618;2023-01-27T06:03:46;93927.19;;;7.73;34.75
70902;BME280;58548;47.210;8.618;2023-01-27T06:06:16;93816.25;;;7.20;34.72
70902;BME280;58548;47.210;8.618;2023-01-27T06:08:43;93792.34;;;7.01;34.53
70902;BME280;58548;47.210;8.618;2023-01-27T06:11:14;93936.31;;;7.92;34.43
70902;BME280;58548;47.210;8.618;2023-01-27T06:13:41;93843.31;;;7.26;35.27
70902;BME280;58548;47.210;8.618;2023-01-27T06:16:12;93940.44;;;8.01;34.67
70902;BME280;58548;47.210;8.618;2023-01-27T06:18:42;93859.19;;;7.46;34.88
70902;BME280;58548;47.210;8.618;2023-01-27T06:21:14;93940.59;;;7.84;34.42
70902;BME280;58548;47.210;8.618;2023-01-27T06:23:41;93835.66;;;7.24;34.62
70902;BME280;58548;47.210;8.618;2023-01-27T06:26:09;93830.56;;;7.16;34.73
70902;BME280;58548;47.210;8.618;2023-01-27T06:28:39;93911.88;;;7.78;35.11
70902;BME280;58548;47.210;8.618;2023-01-27T06:31:15;93934.84;;;7.89;34.96
70902;BME280;58548;47.210;8.618;2023-01-27T06:33:48;93950.28;;;7.91;34.97
70902;BME280;58548;47.210;8.618;2023-01-27T06:36:17;93895.09;;;7.65;34.66
70902;BME280;58548;47.210;8.618;2023-01-27T06:38:47;93960.09;;;8.04;35.67
70902;BME280;58548;47.210;8.618;2023-01-27T06:41:17;93841.78;;;7.31;34.67
70902;BME280;58548;47.210;8.618;2023-01-27T06:43:45;93886.91;;;7.53;34.60
70902;BME280;58548;47.210;8.618;2023-01-27T06:46:13;93745.22;;;6.74;35.28
70902;BME280;58548;47.210;8.618;2023-01-27T06:48:41;93990.66;;;8.17;35.14
70902;BME280;58548;47.210;8.618;2023-01-27T06:51:10;93990.78;;;8.23;34.44
70902;BME280;58548;47.210;8.618;2023-01-27T06:53:35;93874.38;;;7.57;34.94
70902;BME280;58548;47.210;8.618;2023-01-27T06:56:06;93933.50;;;7.93;34.89
70902;BME280;58548;47.210;8.618;2023-01-27T06:58:35;93976.69;;;8.18;34.83
70902;BME280;58548;47.210;8.618;2023-01-27T07:01:03;93884.50;;;7.52;35.43
70902;BME280;58548;47.210;8.618;2023-01-27T07:03:33;93858.66;;;7.35;35.14
70902;BME280;58548;47.210;8.618;2023-01-27T07:06:01;93901.91;;;7.66;35.64
70902;BME280;58548;47.210;8.618;2023-01-27T07:08:26;93995.75;;;8.33;35.08
70902;BME280;58548;47.210;8.618;2023-01-27T07:10:55;93867.97;;;7.45;35.21
70902;BME280;58548;47.210;8.618;2023-01-27T07:13:23;93880.56;;;7.56;34.85
70902;BME280;58548;47.210;8.618;2023-01-27T07:15:53;93979.91;;;8.20;34.87
70902;BME280;58548;47.210;8.618;2023-01-27T07:18:21;93880.06;;;7.37;35.25
70902;BME280;58548;47.210;8.618;2023-01-27T07:20:47;93917.38;;;7.60;35.04
70902;BME280;58548;47.210;8.618;2023-01-27T07:23:13;93922.69;;;7.66;35.09
70902;BME280;58548;47.210;8.618;2023-01-27T07:25:39;93988.16;;;8.08;34.91
70902;BME280;58548;47.210;8.618;2023-01-27T07:28:11;93990.31;;;8.05;35.62
70902;BME280;58548;47.210;8.618;2023-01-27T07:30:42;93898.94;;;7.31;35.25
70902;BME280;58548;47.210;8.618;2023-01-27T07:33:11;93933.31;;;7.57;35.55
70902;BME280;58548;47.210;8.618;2023-01-27T07:35:40;94016.00;;;8.23;35.57
70902;BME280;58548;47.210;8.618;2023-01-27T07:38:08;93899.38;;;7.35;35.25
70902;BME280;58548;47.210;8.618;2023-01-27T07:40:34;94024.63;;;8.23;35.32
70902;BME280;58548;47.210;8.618;2023-01-27T07:43:05;94035.88;;;8.15;35.81
70902;BME280;58548;47.210;8.618;2023-01-27T07:45:31;93965.91;;;7.67;36.05
70902;BME280;58548;47.210;8.618;2023-01-27T07:48:02;93980.16;;;7.72;35.97
70902;BME280;58548;47.210;8.618;2023-01-27T07:50:28;93877.56;;;7.21;35.62
70902;BME280;58548;47.210;8.618;2023-01-27T07:52:57;93853.63;;;7.11;35.64
70902;BME280;58548;47.210;8.618;2023-01-27T07:55:25;94009.19;;;8.37;35.33
70902;BME280;58548;47.210;8.618;2023-01-27T07:57:55;94007.38;;;8.37;34.84
70902;BME280;58548;47.210;8.618;2023-01-27T08:00:23;94010.19;;;8.36;35.03
70902;BME280;58548;47.210;8.618;2023-01-27T08:02:50;94020.81;;;8.49;34.51
70902;BME280;58548;47.210;8.618;2023-01-27T08:05:16;94009.06;;;8.53;35.26
70902;BME280;58548;47.210;8.618;2023-01-27T08:07:45;93991.22;;;8.12;34.96
70902;BME280;58548;47.210;8.618;2023-01-27T08:10:14;93884.69;;;7.65;34.89
70902;BME280;58548;47.210;8.618;2023-01-27T08:12:44;93898.66;;;7.64;34.88
70902;BME280;58548;47.210;8.618;2023-01-27T08:15:13;93910.19;;;7.70;34.65
70902;BME280;58548;47.210;8.618;2023-01-27T08:17:41;94035.38;;;8.58;34.54
70902;BME280;58548;47.210;8.618;2023-01-27T08:20:12;93892.06;;;7.77;35.12
70902;BME280;58548;47.210;8.618;2023-01-27T08:22:41;94031.44;;;8.63;34.75
70902;BME280;58548;47.210;8.618;2023-01-27T08:25:07;94009.66;;;8.40;34.57
70902;BME280;58548;47.210;8.618;2023-01-27T08:27:33;93922.19;;;7.86;34.61
70902;BME280;58548;47.210;8.618;2023-01-27T08:30:02;94002.25;;;8.14;34.90
70902;BME280;58548;47.210;8.618;2023-01-27T08:32:33;94038.03;;;8.50;34.96
70902;BME280;58548;47.210;8.618;2023-01-27T08:35:01;93918.75;;;7.70;35.44
70902;BME280;58548;47.210;8.618;2023-01-27T08:37:27;93926.84;;;7.76;35.07
70902;BME280;58548;47.210;8.618;2023-01-27T08:39:53;93906.66;;;7.63;35.00
70902;BME280;58548;47.210;8.618;2023-01-27T08:42:19;94042.97;;;8.45;34.44
70902;BME280;58548;47.210;8.618;2023-01-27T08:44:46;93913.06;;;7.52;35.65
70902;BME280;58548;47.210;8.618;2023-01-27T08:47:14;94020.91;;;8.18;35.20
70902;BME280;58548;47.210;8.618;2023-01-27T08:49:44;93944.56;;;7.57;35.11
70902;BME280;58548;47.210;8.618;2023-01-27T08:52:13;93905.31;;;7.29;35.52
70902;BME280;58548;47.210;8.618;2023-01-27T08:54:43;93885.56;;;7.19;35.49
70902;BME280;58548;47.210;8.618;2023-01-27T08:57:09;93996.84;;;8.00;35.14
70902;BME280;58548;47.210;8.618;2023-01-27T08:59:35;94054.47;;;8.51;35.32
70902;BME280;58548;47.210;8.618;2023-01-27T09:02:03;94063.50;;;8.40;35.24
70902;BME280;58548;47.210;8.618;2023-01-27T09:04:32;93992.00;;;7.97;35.36
70902;BME280;58548;47.210;8.618;2023-01-27T09:06:57;94011.72;;;8.07;35.86
70902;BME280;58548;47.210;8.618;2023-01-27T09:09:26;94057.94;;;8.43;35.16
70902;BME280;58548;47.210;8.618;2023-01-27T09:11:52;93926.66;;;7.62;35.65
70902;BME280;58548;47.210;8.618;2023-01-27T09:14:21;94041.59;;;8.34;35.58
70902;BME280;58548;47.210;8.618;2023-01-27T09:16:49;93865.59;;;7.20;35.33
70902;BME280;58548;47.210;8.618;2023-01-27T09:19:15;93981.59;;;7.97;35.58
70902;BME280;58548;47.210;8.618;2023-01-27T09:21:41;93924.22;;;7.61;35.19
70902;BME280;58548;47.210;8.618;2023-01-27T09:24:07;94032.97;;;8.34;35.63
70902;BME280;58548;47.210;8.618;2023-01-27T09:26:33;93917.16;;;7.69;35.25
70902;BME280;58548;47.210;8.618;2023-01-27T09:28:59;94074.50;;;8.65;35.54
70902;BME280;58548;47.210;8.618;2023-01-27T09:31:25;94068.41;;;8.73;35.31
70902;BME280;58548;47.210;8.618;2023-01-27T09:33:51;94093.47;;;8.74;35.69
70902;BME280;58548;47.210;8.618;2023-01-27T09:36:20;93946.00;;;8.13;35.15
70902;BME280;58548;47.210;8.618;2023-01-27T09:39:01;94074.00;;;9.00;35.52
70902;BME280;58548;47.210;8.618;2023-01-27T09:47:53;94073.28;;;9.06;34.17
70902;BME280;58548;47.210;8.618;2023-01-27T09:50:43;94075.06;;;9.20;33.93
70902;BME280;58548;47.210;8.618;2023-01-27T09:53:28;94078.94;;;9.10;34.05
70902;BME280;58548;47.210;8.618;2023-01-27T10:12:19;94070.00;;;9.34;33.79
70902;BME280;58548;47.210;8.618;2023-01-27T10:20:54;94055.50;;;9.61;33.26
70902;BME280;58548;47.210;8.618;2023-01-27T10:28:50;93970.00;;;9.35;33.14
70902;BME280;58548;47.210;8.618;2023-01-27T10:31:26;94047.41;;;9.93;33.14
70902;BME280;58548;47.210;8.618;2023-01-27T10:33:55;93957.78;;;9.35;32.82
70902;BME280;58548;47.210;8.618;2023-01-27T10:36:28;94049.38;;;9.91;32.61
70902;BME280;58548;47.210;8.618;2023-01-27T10:39:28;93936.88;;;9.29;33.16
70902;BME280;58548;47.210;8.618;2023-01-27T10:50:35;94021.94;;;9.73;32.62
70902;BME280;58548;47.210;8.618;2023-01-27T10:53:13;94046.16;;;9.89;32.30
70902;BME280;58548;47.210;8.618;2023-01-27T10:56:02;94063.19;;;9.70;32.82
70902;BME280;58548;47.210;8.618;2023-01-27T11:01:14;94055.22;;;9.71;32.51
70902;BME280;58548;47.210;8.618;2023-01-27T11:04:06;94055.91;;;9.43;33.75
70902;BME280;58548;47.210;8.618;2023-01-27T11:06:40;93935.97;;;8.85;33.23
70902;BME280;58548;47.210;8.618;2023-01-27T11:09:29;94055.13;;;9.64;33.40
70902;BME280;58548;47.210;8.618;2023-01-27T11:12:00;94052.41;;;9.73;33.23
70902;BME280;58548;47.210;8.618;2023-01-27T11:14:49;94077.81;;;9.86;33.39
70902;BME280;58548;47.210;8.618;2023-01-27T11:19:55;93963.78;;;9.36;33.82
70902;BME280;58548;47.210;8.618;2023-01-27T11:25:45;94070.09;;;9.99;33.38
70902;BME280;58548;47.210;8.618;2023-01-27T11:36:51;94052.97;;;10.11;33.17
70902;BME280;58548;47.210;8.618;2023-01-27T11:39:20;94061.13;;;10.02;33.07
70902;BME280;58548;47.210;8.618;2023-01-27T11:41:53;93933.13;;;9.16;32.97
70902;BME280;58548;47.210;8.618;2023-01-27T11:44:32;94052.53;;;9.86;32.60
70902;BME280;58548;47.210;8.618;2023-01-27T11:47:03;93930.72;;;9.15;33.04
70902;BME280;58548;47.210;8.618;2023-01-27T11:49:35;94057.75;;;9.86;31.79
70902;BME280;58548;47.210;8.618;2023-01-27T11:52:13;93930.25;;;8.89;32.44
70902;BME280;58548;47.210;8.618;2023-01-27T11:54:49;94054.75;;;9.68;32.55
70902;BME280;58548;47.210;8.618;2023-01-27T11:57:23;93908.09;;;8.64;32.50
70902;BME280;58548;47.210;8.618;2023-01-27T11:59:59;93830.13;;;7.80;32.98
70902;BME280;58548;47.210;8.618;2023-01-27T12:02:41;93935.19;;;8.54;32.58
70902;BME280;58548;47.210;8.618;2023-01-27T12:05:16;94051.00;;;9.18;32.51
70902;BME280;58548;47.210;8.618;2023-01-27T12:08:01;93935.88;;;8.18;33.38
70902;BME280;58548;47.210;8.618;2023-01-27T12:13:17;93938.75;;;8.38;33.05
70902;BME280;58548;47.210;8.618;2023-01-27T12:18:18;94048.56;;;9.17;33.14
70902;BME280;58548;47.210;8.618;2023-01-27T12:21:00;94037.72;;;8.83;32.91
70902;BME280;58548;47.210;8.618;2023-01-27T12:23:32;94023.16;;;9.04;32.95
70902;BME280;58548;47.210;8.618;2023-01-27T12:26:02;94051.00;;;9.18;33.21
70902;BME280;58548;47.210;8.618;2023-01-27T12:31:04;93970.94;;;8.60;33.40
70902;BME280;58548;47.210;8.618;2023-01-27T12:33:40;93978.75;;;8.75;33.22
70902;BME280;58548;47.210;8.618;2023-01-27T12:36:17;94009.59;;;8.94;33.21
70902;BME280;58548;47.210;8.618;2023-01-27T12:38:53;93887.53;;;8.09;33.27
70902;BME280;58548;47.210;8.618;2023-01-27T12:41:46;94022.53;;;9.17;33.00
70902;BME280;58548;47.210;8.618;2023-01-27T12:44:15;94022.22;;;9.27;32.70
70902;BME280;58548;47.210;8.618;2023-01-27T12:47:01;94033.53;;;9.34;32.76
70902;BME280;58548;47.210;8.618;2023-01-27T12:49:33;94007.94;;;9.23;33.11
70902;BME280;58548;47.210;8.618;2023-01-27T12:52:04;93901.50;;;8.08;33.38
70902;BME280;58548;47.210;8.618;2023-01-27T12:54:35;94038.78;;;9.04;32.90
70902;BME280;58548;47.210;8.618;2023-01-27T12:57:05;93893.00;;;7.99;32.77
70902;BME280;58548;47.210;8.618;2023-01-27T12:59:53;94017.97;;;8.74;32.83
70902;BME280;58548;47.210;8.618;2023-01-27T13:02:29;93910.84;;;8.17;33.00
70902;BME280;58548;47.210;8.618;2023-01-27T13:05:04;93943.22;;;8.29;33.87
70902;BME280;58548;47.210;8.618;2023-01-27T13:07:43;94050.28;;;8.95;33.09
70902;BME280;58548;47.210;8.618;2023-01-27T13:10:23;94051.53;;;8.69;34.03
70902;BME280;58548;47.210;8.618;2023-01-27T13:12:53;94042.72;;;8.70;33.49
70902;BME280;58548;47.210;8.618;2023-01-27T13:15:24;93804.16;;;7.27;33.42
70902;BME280;58548;47.210;8.618;2023-01-27T13:17:55;93928.88;;;8.04;33.46
70902;BME280;58548;47.210;8.618;2023-01-27T13:20:43;94045.44;;;8.92;33.52
70902;BME280;58548;47.210;8.618;2023-01-27T13:23:23;94032.59;;;8.90;33.41
70902;BME280;58548;47.210;8.618;2023-01-27T13:31:57;94005.13;;;8.72;33.34
70902;BME280;58548;47.210;8.618;2023-01-27T13:34:47;94042.31;;;8.81;33.81
70902;BME280;58548;47.210;8.618;2023-01-27T13:40:02;93987.88;;;8.71;33.52
70902;BME280;58548;47.210;8.618;2023-01-27T13:45:15;93908.44;;;8.30;33.30
70902;BME280;58548;47.210;8.618;2023-01-27T13:52:57;94049.84;;;9.21;33.22
70902;BME280;58548;47.210;8.618;2023-01-27T13:58:54;94058.25;;;9.23;33.33
70902;BME280;58548;47.210;8.618;2023-01-27T14:18:33;93979.66;;;8.29;33.50
70902;BME280;58548;47.210;8.618;2023-01-27T14:24:45;93941.94;;;7.95;32.83
70902;BME280;58548;47.210;8.618;2023-01-27T14:27:19;94062.22;;;8.74;33.59
70902;BME280;58548;47.210;8.618;2023-01-27T14:33:12;94067.00;;;8.85;32.91
70902;BME280;58548;47.210;8.618;2023-01-27T14:40:47;94084.47;;;8.62;33.57
70902;BME280;58548;47.210;8.618;2023-01-27T14:46:34;94075.69;;;8.63;33.63
70902;BME280;58548;47.210;8.618;2023-01-27T14:52:16;93942.59;;;7.97;33.66
70902;BME280;58548;47.210;8.618;2023-01-27T14:57:42;93997.50;;;8.03;34.27
70902;BME280;58548;47.210;8.618;2023-01-27T15:00:45;94068.94;;;8.53;33.73
70902;BME280;58548;47.210;8.618;2023-01-27T15:06:20;94088.34;;;8.66;34.07
70902;BME280;58548;47.210;8.618;2023-01-27T15:14:43;94098.22;;;8.70;33.50
70902;BME280;58548;47.210;8.618;2023-01-27T15:17:33;93968.66;;;7.89;34.12
70902;BME280;58548;47.210;8.618;2023-01-27T15:25:49;94098.75;;;8.66;34.21
70902;BME280;58548;47.210;8.618;2023-01-27T15:28:18;94095.72;;;8.77;33.58
70902;BME280;58548;47.210;8.618;2023-01-27T15:44:30;94110.38;;;8.32;34.90
70902;BME280;58548;47.210;8.618;2023-01-27T15:52:20;94122.38;;;8.41;34.98
70902;BME280;58548;47.210;8.618;2023-01-27T15:54:50;94114.16;;;8.52;35.31
70902;BME280;58548;47.210;8.618;2023-01-27T15:57:32;94135.13;;;8.74;34.83
70902;BME280;58548;47.210;8.618;2023-01-27T16:06:23;94133.84;;;8.55;35.21
70902;BME280;58548;47.210;8.618;2023-01-27T16:08:56;94145.88;;;8.56;34.98
70902;BME280;58548;47.210;8.618;2023-01-27T16:16:39;94012.44;;;7.77;35.72
70902;BME280;58548;47.210;8.618;2023-01-27T16:19:23;94133.13;;;8.38;35.44
70902;BME280;58548;47.210;8.618;2023-01-27T16:29:54;94158.56;;;8.27;36.34
70902;BME280;58548;47.210;8.618;2023-01-27T16:32:35;94145.28;;;8.22;35.71
70902;BME280;58548;47.210;8.618;2023-01-27T16:35:06;94113.34;;;8.05;35.71
70902;BME280;58548;47.210;8.618;2023-01-27T16:38:02;94161.34;;;8.26;35.64
70902;BME280;58548;47.210;8.618;2023-01-27T16:40:32;94177.31;;;8.46;35.73
70902;BME280;58548;47.210;8.618;2023-01-27T16:43:15;94012.16;;;7.49;35.78
70902;BME280;58548;47.210;8.618;2023-01-27T16:45:51;94077.34;;;7.94;36.09
70902;BME280;58548;47.210;8.618;2023-01-27T16:48:30;94100.16;;;8.07;35.90
70902;BME280;58548;47.210;8.618;2023-01-27T16:51:27;94177.94;;;8.48;35.77